sensor_id;sensor_type;location;lat;lon;timestamp;P1;durP1;ratioP1;P2;durP2;ratioP2
42030;SDS011;27709;52.036;5.906;2024-03-08T00:01:30;47.72;;;24.58;;
42030;SDS011;27709;52.036;5.906;2024-03-08T00:03:55;47.10;;;23.50;;
42030;SDS011;27709;52.036;5.906;2024-03-08T00:06:21;46.40;;;23.30;;
42030;SDS011;27709;52.036;5.906;2024-03-08T00:08:47;48.28;;;23.30;;
42030;SDS011;27709;52.036;5.906;2024-03-08T00:11:12;44.78;;;21.83;;
42030;SDS011;27709;52.036;5.906;2024-03-08T00:13:38;47.80;;;23.98;;
42030;SDS011;27709;52.036;5.906;2024-03-08T00:16:04;46.33;;;22.75;;
42030;SDS011;27709;52.036;5.906;2024-03-08T00:18:29;49.60;;;24.15;;
42030;SDS011;27709;52.036;5.906;2024-03-08T00:20:55;46.53;;;23.45;;
42030;SDS011;27709;52.036;5.906;2024-03-08T00:23:21;47.88;;;23.50;;
42030;SDS011;27709;52.036;5.906;2024-03-08T00:25:46;49.00;;;24.30;;
42030;SDS011;27709;52.036;5.906;2024-03-08T00:28:13;53.38;;;25.88;;
42030;SDS011;27709;52.036;5.906;2024-03-08T00:30:41;46.13;;;22.75;;
42030;SDS011;27709;52.036;5.906;2024-03-08T00:33:07;54.33;;;26.58;;
42030;SDS011;27709;52.036;5.906;2024-03-08T00:35:33;47.17;;;22.85;;
42030;SDS011;27709;52.036;5.906;2024-03-08T00:37:58;51.28;;;23.58;;
42030;SDS011;27709;52.036;5.906;2024-03-08T00:40:24;50.22;;;24.98;;
42030;SDS011;27709;52.036;5.906;2024-03-08T00:42:50;49.67;;;25.50;;
42030;SDS011;27709;52.036;5.906;2024-03-08T00:45:15;49.72;;;24.58;;
42030;SDS011;27709;52.036;5.906;2024-03-08T00:47:41;56.75;;;26.63;;
42030;SDS011;27709;52.036;5.906;2024-03-08T00:50:09;44.70;;;23.58;;
42030;SDS011;27709;52.036;5.906;2024-03-08T00:52:35;51.78;;;25.80;;
42030;SDS011;27709;52.036;5.906;2024-03-08T00:55:01;50.67;;;25.50;;
42030;SDS011;27709;52.036;5.906;2024-03-08T00:57:27;49.80;;;24.90;;
42030;SDS011;27709;52.036;5.906;2024-03-08T00:59:52;48.95;;;24.98;;
42030;SDS011;27709;52.036;5.906;2024-03-08T01:02:19;51.15;;;26.23;;
42030;SDS011;27709;52.036;5.906;2024-03-08T01:04:46;52.50;;;25.13;;
42030;SDS011;27709;52.036;5.906;2024-03-08T01:07:12;53.00;;;25.92;;
42030;SDS011;27709;52.036;5.906;2024-03-08T01:09:38;50.95;;;25.60;;
42030;SDS011;27709;52.036;5.906;2024-03-08T01:12:03;52.33;;;25.52;;
42030;SDS011;27709;52.036;5.906;2024-03-08T01:14:30;48.72;;;24.58;;
42030;SDS011;27709;52.036;5.906;2024-03-08T01:16:55;49.45;;;25.17;;
42030;SDS011;27709;52.036;5.906;2024-03-08T01:19:21;54.40;;;25.67;;
42030;SDS011;27709;52.036;5.906;2024-03-08T01:21:47;49.17;;;25.42;;
42030;SDS011;27709;52.036;5.906;2024-03-08T01:24:12;48.17;;;25.67;;
42030;SDS011;27709;52.036;5.906;2024-03-08T01:26:38;51.03;;;25.52;;
42030;SDS011;27709;52.036;5.906;2024-03-08T01:29:03;52.70;;;25.25;;
42030;SDS011;27709;52.036;5.906;2024-03-08T01:31:29;53.38;;;27.85;;
42030;SDS011;27709;52.036;5.906;2024-03-08T01:33:56;51.13;;;25.95;;
42030;SDS011;27709;52.036;5.906;2024-03-08T01:36:22;43.90;;;23.60;;
42030;SDS011;27709;52.036;5.906;2024-03-08T01:38:48;51.08;;;25.23;;
42030;SDS011;27709;52.036;5.906;2024-03-08T01:41:14;46.97;;;24.98;;
42030;SDS011;27709;52.036;5.906;2024-03-08T01:43:41;48.55;;;24.67;;
42030;SDS011;27709;52.036;5.906;2024-03-08T01:46:07;48.70;;;24.45;;
42030;SDS011;27709;52.036;5.906;2024-03-08T01:48:34;48.45;;;24.00;;
42030;SDS011;27709;52.036;5.906;2024-03-08T01:51:00;46.17;;;24.15;;
42030;SDS011;27709;52.036;5.906;2024-03-08T01:53:26;48.33;;;24.02;;
42030;SDS011;27709;52.036;5.906;2024-03-08T01:55:54;45.47;;;23.23;;
42030;SDS011;27709;52.036;5.906;2024-03-08T01:58:22;45.28;;;22.88;;
42030;SDS011;27709;52.036;5.906;2024-03-08T02:00:48;46.75;;;24.05;;
42030;SDS011;27709;52.036;5.906;2024-03-08T02:03:17;47.45;;;24.63;;
42030;SDS011;27709;52.036;5.906;2024-03-08T02:05:43;47.00;;;23.25;;
42030;SDS011;27709;52.036;5.906;2024-03-08T02:08:10;46.47;;;23.17;;
42030;SDS011;27709;52.036;5.906;2024-03-08T02:10:39;46.08;;;22.65;;
42030;SDS011;27709;52.036;5.906;2024-03-08T02:13:06;44.90;;;23.33;;
42030;SDS011;27709;52.036;5.906;2024-03-08T02:23:22;46.50;;;23.92;;
42030;SDS011;27709;52.036;5.906;2024-03-08T02:25:50;51.60;;;24.35;;
42030;SDS011;27709;52.036;5.906;2024-03-08T02:28:16;49.05;;;25.02;;
42030;SDS011;27709;52.036;5.906;2024-03-08T02:30:43;48.42;;;24.85;;
42030;SDS011;27709;52.036;5.906;2024-03-08T02:33:13;45.03;;;24.30;;
42030;SDS011;27709;52.036;5.906;2024-03-08T02:35:42;50.00;;;25.85;;
42030;SDS011;27709;52.036;5.906;2024-03-08T02:38:12;48.38;;;25.58;;
42030;SDS011;27709;52.036;5.906;2024-03-08T02:40:41;47.03;;;24.00;;
42030;SDS011;27709;52.036;5.906;2024-03-08T02:43:08;46.50;;;24.65;;
42030;SDS011;27709;52.036;5.906;2024-03-08T02:45:34;48.28;;;23.45;;
42030;SDS011;27709;52.036;5.906;2024-03-08T02:48:00;47.70;;;24.80;;
42030;SDS011;27709;52.036;5.906;2024-03-08T02:50:25;46.33;;;23.65;;
42030;SDS011;27709;52.036;5.906;2024-03-08T02:52:51;50.17;;;24.98;;
42030;SDS011;27709;52.036;5.906;2024-03-08T02:55:17;57.63;;;27.85;;
42030;SDS011;27709;52.036;5.906;2024-03-08T02:57:42;51.53;;;24.42;;
42030;SDS011;27709;52.036;5.906;2024-03-08T03:00:12;45.85;;;23.83;;
42030;SDS011;27709;52.036;5.906;2024-03-08T03:02:38;50.25;;;24.35;;
42030;SDS011;27709;52.036;5.906;2024-03-08T03:05:04;52.50;;;28.00;;
42030;SDS011;27709;52.036;5.906;2024-03-08T03:07:34;51.58;;;26.40;;
42030;SDS011;27709;52.036;5.906;2024-03-08T03:10:00;48.65;;;26.38;;
42030;SDS011;27709;52.036;5.906;2024-03-08T03:12:30;50.47;;;25.17;;
42030;SDS011;27709;52.036;5.906;2024-03-08T03:14:56;46.03;;;25.42;;
42030;SDS011;27709;52.036;5.906;2024-03-08T03:17:25;49.50;;;23.60;;
42030;SDS011;27709;52.036;5.906;2024-03-08T03:19:52;48.50;;;25.23;;
42030;SDS011;27709;52.036;5.906;2024-03-08T03:22:18;45.10;;;23.98;;
42030;SDS011;27709;52.036;5.906;2024-03-08T03:24:47;50.20;;;25.63;;
42030;SDS011;27709;52.036;5.906;2024-03-08T03:27:13;51.05;;;26.88;;
42030;SDS011;27709;52.036;5.906;2024-03-08T03:29:40;46.35;;;25.83;;
42030;SDS011;27709;52.036;5.906;2024-03-08T03:32:11;46.33;;;25.02;;
42030;SDS011;27709;52.036;5.906;2024-03-08T03:34:37;51.05;;;26.45;;
42030;SDS011;27709;52.036;5.906;2024-03-08T03:37:03;50.35;;;25.55;;
42030;SDS011;27709;52.036;5.906;2024-03-08T03:39:29;54.65;;;27.38;;
42030;SDS011;27709;52.036;5.906;2024-03-08T03:41:59;45.08;;;26.02;;
42030;SDS011;27709;52.036;5.906;2024-03-08T03:44:27;47.28;;;25.10;;
42030;SDS011;27709;52.036;5.906;2024-03-08T03:46:53;45.95;;;26.00;;
42030;SDS011;27709;52.036;5.906;2024-03-08T03:49:18;52.05;;;28.13;;
42030;SDS011;27709;52.036;5.906;2024-03-08T03:51:44;48.85;;;25.50;;
42030;SDS011;27709;52.036;5.906;2024-03-08T03:54:10;50.60;;;26.90;;
42030;SDS011;27709;52.036;5.906;2024-03-08T03:56:36;53.17;;;27.77;;
42030;SDS011;27709;52.036;5.906;2024-03-08T03:59:01;50.30;;;27.10;;
42030;SDS011;27709;52.036;5.906;2024-03-08T04:01:27;45.88;;;26.50;;
42030;SDS011;27709;52.036;5.906;2024-03-08T04:03:54;49.83;;;26.15;;
42030;SDS011;27709;52.036;5.906;2024-03-08T04:06:20;51.67;;;28.58;;
42030;SDS011;27709;52.036;5.906;2024-03-08T04:08:45;47.60;;;25.80;;
42030;SDS011;27709;52.036;5.906;2024-03-08T04:11:11;56.45;;;28.67;;
42030;SDS011;27709;52.036;5.906;2024-03-08T04:13:37;51.75;;;27.25;;
42030;SDS011;27709;52.036;5.906;2024-03-08T04:16:02;48.53;;;26.63;;
42030;SDS011;27709;52.036;5.906;2024-03-08T04:18:32;50.72;;;27.25;;
42030;SDS011;27709;52.036;5.906;2024-03-08T04:21:00;51.53;;;28.65;;
42030;SDS011;27709;52.036;5.906;2024-03-08T04:23:27;52.83;;;28.02;;
42030;SDS011;27709;52.036;5.906;2024-03-08T04:25:53;51.38;;;28.13;;
42030;SDS011;27709;52.036;5.906;2024-03-08T04:28:19;53.13;;;27.45;;
42030;SDS011;27709;52.036;5.906;2024-03-08T04:30:45;53.05;;;28.70;;
42030;SDS011;27709;52.036;5.906;2024-03-08T04:33:11;52.78;;;26.52;;
42030;SDS011;27709;52.036;5.906;2024-03-08T04:35:36;52.70;;;27.05;;
42030;SDS011;27709;52.036;5.906;2024-03-08T04:38:02;47.80;;;26.63;;
42030;SDS011;27709;52.036;5.906;2024-03-08T04:40:30;53.90;;;28.33;;
42030;SDS011;27709;52.036;5.906;2024-03-08T04:42:56;49.63;;;27.30;;
42030;SDS011;27709;52.036;5.906;2024-03-08T04:45:23;50.58;;;28.80;;
42030;SDS011;27709;52.036;5.906;2024-03-08T04:47:50;56.03;;;29.77;;
42030;SDS011;27709;52.036;5.906;2024-03-08T04:50:17;52.80;;;28.30;;
42030;SDS011;27709;52.036;5.906;2024-03-08T04:52:43;57.75;;;29.23;;
42030;SDS011;27709;52.036;5.906;2024-03-08T04:55:08;54.50;;;28.02;;
42030;SDS011;27709;52.036;5.906;2024-03-08T04:57:34;50.38;;;28.02;;
42030;SDS011;27709;52.036;5.906;2024-03-08T05:00:00;55.10;;;29.30;;
42030;SDS011;27709;52.036;5.906;2024-03-08T05:02:27;57.03;;;28.52;;
42030;SDS011;27709;52.036;5.906;2024-03-08T05:04:53;52.53;;;29.02;;
42030;SDS011;27709;52.036;5.906;2024-03-08T05:07:18;52.85;;;29.33;;
42030;SDS011;27709;52.036;5.906;2024-03-08T05:09:44;54.97;;;29.08;;
42030;SDS011;27709;52.036;5.906;2024-03-08T05:12:16;55.60;;;29.45;;
42030;SDS011;27709;52.036;5.906;2024-03-08T05:14:42;55.38;;;29.58;;
42030;SDS011;27709;52.036;5.906;2024-03-08T05:17:08;57.65;;;28.83;;
42030;SDS011;27709;52.036;5.906;2024-03-08T05:19:34;56.08;;;28.65;;
42030;SDS011;27709;52.036;5.906;2024-03-08T05:22:01;57.85;;;30.30;;
42030;SDS011;27709;52.036;5.906;2024-03-08T05:24:28;54.28;;;29.92;;
42030;SDS011;27709;52.036;5.906;2024-03-08T05:26:54;55.17;;;28.40;;
42030;SDS011;27709;52.036;5.906;2024-03-08T05:29:20;54.28;;;29.23;;
42030;SDS011;27709;52.036;5.906;2024-03-08T05:31:46;54.40;;;28.33;;
42030;SDS011;27709;52.036;5.906;2024-03-08T05:34:14;55.65;;;29.95;;
42030;SDS011;27709;52.036;5.906;2024-03-08T05:36:41;56.58;;;29.13;;
42030;SDS011;27709;52.036;5.906;2024-03-08T05:39:11;55.70;;;29.70;;
42030;SDS011;27709;52.036;5.906;2024-03-08T05:41:40;52.65;;;27.73;;
42030;SDS011;27709;52.036;5.906;2024-03-08T05:44:06;55.60;;;28.60;;
42030;SDS011;27709;52.036;5.906;2024-03-08T05:46:32;56.33;;;29.35;;
42030;SDS011;27709;52.036;5.906;2024-03-08T05:48:58;52.13;;;27.95;;
42030;SDS011;27709;52.036;5.906;2024-03-08T05:51:24;52.97;;;28.67;;
42030;SDS011;27709;52.036;5.906;2024-03-08T05:53:53;53.90;;;27.90;;
42030;SDS011;27709;52.036;5.906;2024-03-08T05:56:20;58.10;;;30.17;;
42030;SDS011;27709;52.036;5.906;2024-03-08T05:58:48;55.47;;;29.98;;
42030;SDS011;27709;52.036;5.906;2024-03-08T06:01:15;58.42;;;30.88;;
42030;SDS011;27709;52.036;5.906;2024-03-08T06:03:40;49.22;;;27.45;;
42030;SDS011;27709;52.036;5.906;2024-03-08T06:06:11;55.75;;;29.75;;
42030;SDS011;27709;52.036;5.906;2024-03-08T06:08:37;55.13;;;28.98;;
42030;SDS011;27709;52.036;5.906;2024-03-08T06:11:03;54.42;;;28.75;;
42030;SDS011;27709;52.036;5.906;2024-03-08T06:13:31;55.90;;;28.48;;
42030;SDS011;27709;52.036;5.906;2024-03-08T06:15:58;55.33;;;28.38;;
42030;SDS011;27709;52.036;5.906;2024-03-08T06:18:25;54.35;;;27.27;;
42030;SDS011;27709;52.036;5.906;2024-03-08T06:20:51;49.80;;;27.85;;
42030;SDS011;27709;52.036;5.906;2024-03-08T06:23:17;52.67;;;28.92;;
42030;SDS011;27709;52.036;5.906;2024-03-08T06:25:43;56.75;;;29.30;;
42030;SDS011;27709;52.036;5.906;2024-03-08T06:28:09;52.97;;;28.80;;
42030;SDS011;27709;52.036;5.906;2024-03-08T06:30:35;53.13;;;27.95;;
42030;SDS011;27709;52.036;5.906;2024-03-08T06:33:01;54.88;;;29.63;;
42030;SDS011;27709;52.036;5.906;2024-03-08T06:35:27;53.70;;;28.88;;
42030;SDS011;27709;52.036;5.906;2024-03-08T06:37:52;55.55;;;29.35;;
42030;SDS011;27709;52.036;5.906;2024-03-08T06:40:18;52.13;;;27.80;;
42030;SDS011;27709;52.036;5.906;2024-03-08T06:42:44;53.00;;;29.02;;
42030;SDS011;27709;52.036;5.906;2024-03-08T06:45:10;52.63;;;29.25;;
42030;SDS011;27709;52.036;5.906;2024-03-08T06:47:37;51.92;;;29.15;;
42030;SDS011;27709;52.036;5.906;2024-03-08T06:50:03;56.00;;;29.55;;
42030;SDS011;27709;52.036;5.906;2024-03-08T06:52:29;52.40;;;29.73;;
42030;SDS011;27709;52.036;5.906;2024-03-08T06:54:54;50.63;;;27.30;;
42030;SDS011;27709;52.036;5.906;2024-03-08T06:57:22;53.05;;;28.55;;
42030;SDS011;27709;52.036;5.906;2024-03-08T06:59:48;52.78;;;29.20;;
42030;SDS011;27709;52.036;5.906;2024-03-08T07:02:14;52.45;;;29.70;;
42030;SDS011;27709;52.036;5.906;2024-03-08T07:04:40;51.58;;;28.08;;
42030;SDS011;27709;52.036;5.906;2024-03-08T07:07:05;51.03;;;28.80;;
42030;SDS011;27709;52.036;5.906;2024-03-08T07:09:34;50.45;;;29.42;;
42030;SDS011;27709;52.036;5.906;2024-03-08T07:12:00;49.85;;;27.17;;
42030;SDS011;27709;52.036;5.906;2024-03-08T07:14:26;49.30;;;27.80;;
42030;SDS011;27709;52.036;5.906;2024-03-08T07:16:52;54.50;;;29.35;;
42030;SDS011;27709;52.036;5.906;2024-03-08T07:19:17;52.67;;;29.67;;
42030;SDS011;27709;52.036;5.906;2024-03-08T07:21:44;51.08;;;28.83;;
42030;SDS011;27709;52.036;5.906;2024-03-08T07:24:10;49.75;;;29.38;;
42030;SDS011;27709;52.036;5.906;2024-03-08T07:26:42;51.17;;;29.17;;
42030;SDS011;27709;52.036;5.906;2024-03-08T07:29:08;50.35;;;28.80;;
42030;SDS011;27709;52.036;5.906;2024-03-08T07:31:34;51.28;;;28.80;;
42030;SDS011;27709;52.036;5.906;2024-03-08T07:34:10;54.65;;;30.25;;
42030;SDS011;27709;52.036;5.906;2024-03-08T07:36:36;49.88;;;28.55;;
42030;SDS011;27709;52.036;5.906;2024-03-08T07:39:01;48.22;;;28.27;;
42030;SDS011;27709;52.036;5.906;2024-03-08T07:41:27;47.35;;;28.17;;
42030;SDS011;27709;52.036;5.906;2024-03-08T07:43:54;46.47;;;26.25;;
42030;SDS011;27709;52.036;5.906;2024-03-08T07:46:20;48.17;;;27.10;;
42030;SDS011;27709;52.036;5.906;2024-03-08T07:48:46;47.72;;;28.00;;
42030;SDS011;27709;52.036;5.906;2024-03-08T07:51:11;44.78;;;26.85;;
42030;SDS011;27709;52.036;5.906;2024-03-08T07:53:37;46.58;;;28.35;;
42030;SDS011;27709;52.036;5.906;2024-03-08T07:56:03;43.45;;;26.08;;
42030;SDS011;27709;52.036;5.906;2024-03-08T07:58:32;46.30;;;28.42;;
42030;SDS011;27709;52.036;5.906;2024-03-08T08:00:58;43.03;;;25.35;;
42030;SDS011;27709;52.036;5.906;2024-03-08T08:03:23;46.45;;;28.25;;
42030;SDS011;27709;52.036;5.906;2024-03-08T08:05:50;44.13;;;27.67;;
42030;SDS011;27709;52.036;5.906;2024-03-08T08:08:15;41.17;;;27.45;;
42030;SDS011;27709;52.036;5.906;2024-03-08T08:10:41;41.90;;;28.15;;
42030;SDS011;27709;52.036;5.906;2024-03-08T08:13:07;43.05;;;26.85;;
42030;SDS011;27709;52.036;5.906;2024-03-08T08:15:32;41.80;;;27.80;;
42030;SDS011;27709;52.036;5.906;2024-03-08T08:18:01;41.60;;;26.33;;
42030;SDS011;27709;52.036;5.906;2024-03-08T08:20:30;41.58;;;26.67;;
42030;SDS011;27709;52.036;5.906;2024-03-08T08:22:56;41.42;;;26.92;;
42030;SDS011;27709;52.036;5.906;2024-03-08T08:25:24;40.55;;;26.85;;
42030;SDS011;27709;52.036;5.906;2024-03-08T08:27:49;39.22;;;25.17;;
42030;SDS011;27709;52.036;5.906;2024-03-08T08:30:15;40.00;;;25.05;;
42030;SDS011;27709;52.036;5.906;2024-03-08T08:32:40;37.08;;;25.10;;
42030;SDS011;27709;52.036;5.906;2024-03-08T08:35:09;41.53;;;27.10;;
42030;SDS011;27709;52.036;5.906;2024-03-08T08:37:38;39.53;;;26.48;;
42030;SDS011;27709;52.036;5.906;2024-03-08T08:40:04;39.75;;;25.77;;
42030;SDS011;27709;52.036;5.906;2024-03-08T08:42:39;41.13;;;26.27;;
42030;SDS011;27709;52.036;5.906;2024-03-08T08:45:06;38.13;;;25.15;;
42030;SDS011;27709;52.036;5.906;2024-03-08T08:47:35;38.53;;;25.13;;
42030;SDS011;27709;52.036;5.906;2024-03-08T08:50:01;36.13;;;24.88;;
42030;SDS011;27709;52.036;5.906;2024-03-08T08:52:29;37.70;;;26.17;;
42030;SDS011;27709;52.036;5.906;2024-03-08T08:54:55;37.80;;;26.67;;
42030;SDS011;27709;52.036;5.906;2024-03-08T08:57:31;36.88;;;23.48;;
42030;SDS011;27709;52.036;5.906;2024-03-08T08:59:58;38.08;;;25.40;;
42030;SDS011;27709;52.036;5.906;2024-03-08T09:02:25;39.85;;;26.25;;
42030;SDS011;27709;52.036;5.906;2024-03-08T09:04:51;39.28;;;25.75;;
42030;SDS011;27709;52.036;5.906;2024-03-08T09:07:16;37.15;;;23.58;;
42030;SDS011;27709;52.036;5.906;2024-03-08T09:09:43;38.55;;;25.52;;
42030;SDS011;27709;52.036;5.906;2024-03-08T09:12:10;40.63;;;26.13;;
42030;SDS011;27709;52.036;5.906;2024-03-08T09:14:38;36.70;;;22.90;;
42030;SDS011;27709;52.036;5.906;2024-03-08T09:17:07;38.88;;;25.75;;
42030;SDS011;27709;52.036;5.906;2024-03-08T09:19:36;36.08;;;24.10;;
42030;SDS011;27709;52.036;5.906;2024-03-08T09:22:02;39.67;;;26.25;;
42030;SDS011;27709;52.036;5.906;2024-03-08T09:24:31;38.08;;;24.85;;
42030;SDS011;27709;52.036;5.906;2024-03-08T09:26:57;35.55;;;23.60;;
42030;SDS011;27709;52.036;5.906;2024-03-08T09:29:25;33.42;;;22.40;;
42030;SDS011;27709;52.036;5.906;2024-03-08T09:31:51;38.30;;;24.08;;
42030;SDS011;27709;52.036;5.906;2024-03-08T09:34:17;33.13;;;22.00;;
42030;SDS011;27709;52.036;5.906;2024-03-08T09:36:43;31.60;;;21.63;;
42030;SDS011;27709;52.036;5.906;2024-03-08T09:39:09;35.53;;;24.38;;
42030;SDS011;27709;52.036;5.906;2024-03-08T09:41:41;37.70;;;25.35;;
42030;SDS011;27709;52.036;5.906;2024-03-08T09:44:13;36.42;;;23.58;;
42030;SDS011;27709;52.036;5.906;2024-03-08T09:46:41;36.20;;;23.63;;
42030;SDS011;27709;52.036;5.906;2024-03-08T09:49:07;37.47;;;23.67;;
42030;SDS011;27709;52.036;5.906;2024-03-08T09:51:34;28.77;;;20.20;;
42030;SDS011;27709;52.036;5.906;2024-03-08T09:54:00;33.88;;;23.15;;
42030;SDS011;27709;52.036;5.906;2024-03-08T09:56:29;33.20;;;23.48;;
42030;SDS011;27709;52.036;5.906;2024-03-08T09:58:58;35.40;;;23.20;;
42030;SDS011;27709;52.036;5.906;2024-03-08T10:01:36;32.28;;;21.58;;
42030;SDS011;27709;52.036;5.906;2024-03-08T10:04:03;31.75;;;19.85;;
42030;SDS011;27709;52.036;5.906;2024-03-08T10:06:29;34.08;;;23.23;;
42030;SDS011;27709;52.036;5.906;2024-03-08T10:08:56;31.23;;;22.33;;
42030;SDS011;27709;52.036;5.906;2024-03-08T10:11:22;37.13;;;24.17;;
42030;SDS011;27709;52.036;5.906;2024-03-08T10:13:49;28.95;;;20.00;;
42030;SDS011;27709;52.036;5.906;2024-03-08T10:16:15;30.42;;;19.73;;
42030;SDS011;27709;52.036;5.906;2024-03-08T10:18:42;35.60;;;22.63;;
42030;SDS011;27709;52.036;5.906;2024-03-08T10:21:10;32.28;;;21.90;;
42030;SDS011;27709;52.036;5.906;2024-03-08T10:23:36;33.28;;;22.75;;
42030;SDS011;27709;52.036;5.906;2024-03-08T10:26:12;27.13;;;18.23;;
42030;SDS011;27709;52.036;5.906;2024-03-08T10:28:46;32.58;;;21.92;;
42030;SDS011;27709;52.036;5.906;2024-03-08T10:31:16;31.10;;;20.55;;
42030;SDS011;27709;52.036;5.906;2024-03-08T10:33:45;29.38;;;19.92;;
42030;SDS011;27709;52.036;5.906;2024-03-08T10:36:11;30.55;;;19.65;;
42030;SDS011;27709;52.036;5.906;2024-03-08T10:38:44;32.63;;;22.50;;
42030;SDS011;27709;52.036;5.906;2024-03-08T10:41:12;30.58;;;20.58;;
42030;SDS011;27709;52.036;5.906;2024-03-08T10:46:47;26.88;;;18.30;;
42030;SDS011;27709;52.036;5.906;2024-03-08T10:49:31;26.90;;;18.52;;
42030;SDS011;27709;52.036;5.906;2024-03-08T10:52:01;28.98;;;18.67;;
42030;SDS011;27709;52.036;5.906;2024-03-08T10:54:30;29.60;;;19.45;;
42030;SDS011;27709;52.036;5.906;2024-03-08T10:56:57;31.45;;;22.55;;
42030;SDS011;27709;52.036;5.906;2024-03-08T10:59:23;27.13;;;19.20;;
42030;SDS011;27709;52.036;5.906;2024-03-08T11:01:52;29.65;;;21.08;;
42030;SDS011;27709;52.036;5.906;2024-03-08T11:04:18;31.10;;;20.45;;
42030;SDS011;27709;52.036;5.906;2024-03-08T11:06:47;28.50;;;19.60;;
42030;SDS011;27709;52.036;5.906;2024-03-08T11:09:27;26.65;;;18.48;;
42030;SDS011;27709;52.036;5.906;2024-03-08T11:12:40;29.88;;;20.75;;
42030;SDS011;27709;52.036;5.906;2024-03-08T11:14:44;30.13;;;20.33;;
42030;SDS011;27709;52.036;5.906;2024-03-08T11:17:13;28.02;;;19.15;;
42030;SDS011;27709;52.036;5.906;2024-03-08T11:19:45;27.00;;;17.15;;
42030;SDS011;27709;52.036;5.906;2024-03-08T11:22:22;29.45;;;18.65;;
42030;SDS011;27709;52.036;5.906;2024-03-08T11:24:52;27.92;;;19.92;;
42030;SDS011;27709;52.036;5.906;2024-03-08T11:27:18;28.25;;;19.58;;
42030;SDS011;27709;52.036;5.906;2024-03-08T11:29:46;27.55;;;17.80;;
42030;SDS011;27709;52.036;5.906;2024-03-08T11:32:29;27.52;;;19.20;;
42030;SDS011;27709;52.036;5.906;2024-03-08T11:34:55;30.02;;;20.08;;
42030;SDS011;27709;52.036;5.906;2024-03-08T11:37:21;28.38;;;20.45;;
42030;SDS011;27709;52.036;5.906;2024-03-08T11:39:47;29.48;;;19.90;;
42030;SDS011;27709;52.036;5.906;2024-03-08T11:42:23;28.80;;;19.33;;
42030;SDS011;27709;52.036;5.906;2024-03-08T11:44:51;27.33;;;19.25;;
42030;SDS011;27709;52.036;5.906;2024-03-08T11:47:17;27.63;;;19.10;;
42030;SDS011;27709;52.036;5.906;2024-03-08T11:49:45;29.52;;;19.30;;
42030;SDS011;27709;52.036;5.906;2024-03-08T11:52:16;27.70;;;19.33;;
42030;SDS011;27709;52.036;5.906;2024-03-08T11:54:48;29.13;;;20.33;;
42030;SDS011;27709;52.036;5.906;2024-03-08T11:57:19;30.13;;;19.80;;
42030;SDS011;27709;52.036;5.906;2024-03-08T11:59:51;29.45;;;19.33;;
42030;SDS011;27709;52.036;5.906;2024-03-08T12:02:23;25.65;;;17.52;;
42030;SDS011;27709;52.036;5.906;2024-03-08T12:04:56;26.60;;;18.33;;
42030;SDS011;27709;52.036;5.906;2024-03-08T12:07:28;25.80;;;17.23;;
42030;SDS011;27709;52.036;5.906;2024-03-08T12:12:48;22.88;;;14.52;;
42030;SDS011;27709;52.036;5.906;2024-03-08T12:15:17;23.73;;;16.77;;
42030;SDS011;27709;52.036;5.906;2024-03-08T12:17:43;23.00;;;15.95;;
42030;SDS011;27709;52.036;5.906;2024-03-08T12:20:25;21.73;;;15.07;;
42030;SDS011;27709;52.036;5.906;2024-03-08T12:22:52;24.13;;;16.52;;
42030;SDS011;27709;52.036;5.906;2024-03-08T12:25:19;28.38;;;18.77;;
42030;SDS011;27709;52.036;5.906;2024-03-08T12:27:45;24.77;;;18.10;;
42030;SDS011;27709;52.036;5.906;2024-03-08T12:30:18;26.45;;;18.20;;
42030;SDS011;27709;52.036;5.906;2024-03-08T12:32:50;28.27;;;19.10;;
42030;SDS011;27709;52.036;5.906;2024-03-08T12:35:22;25.08;;;17.77;;
42030;SDS011;27709;52.036;5.906;2024-03-08T12:37:50;26.65;;;17.85;;
42030;SDS011;27709;52.036;5.906;2024-03-08T12:40:19;24.92;;;15.65;;
42030;SDS011;27709;52.036;5.906;2024-03-08T12:42:50;24.63;;;16.75;;
42030;SDS011;27709;52.036;5.906;2024-03-08T12:45:16;25.10;;;17.13;;
42030;SDS011;27709;52.036;5.906;2024-03-08T12:47:41;22.58;;;15.82;;
42030;SDS011;27709;52.036;5.906;2024-03-08T12:50:08;25.52;;;16.95;;
42030;SDS011;27709;52.036;5.906;2024-03-08T12:52:34;22.45;;;14.65;;
42030;SDS011;27709;52.036;5.906;2024-03-08T12:55:01;22.45;;;15.32;;
42030;SDS011;27709;52.036;5.906;2024-03-08T12:57:27;22.75;;;15.05;;
42030;SDS011;27709;52.036;5.906;2024-03-08T12:59:53;23.27;;;15.82;;
42030;SDS011;27709;52.036;5.906;2024-03-08T13:02:19;21.40;;;15.40;;
42030;SDS011;27709;52.036;5.906;2024-03-08T13:04:46;24.92;;;17.05;;
42030;SDS011;27709;52.036;5.906;2024-03-08T13:07:20;23.77;;;15.82;;
42030;SDS011;27709;52.036;5.906;2024-03-08T13:09:46;26.50;;;17.75;;
42030;SDS011;27709;52.036;5.906;2024-03-08T13:12:12;25.67;;;17.15;;
42030;SDS011;27709;52.036;5.906;2024-03-08T13:14:40;25.65;;;17.75;;
42030;SDS011;27709;52.036;5.906;2024-03-08T13:17:06;25.52;;;18.17;;
42030;SDS011;27709;52.036;5.906;2024-03-08T13:19:36;24.33;;;16.33;;
42030;SDS011;27709;52.036;5.906;2024-03-08T13:22:07;25.35;;;17.02;;
42030;SDS011;27709;52.036;5.906;2024-03-08T13:24:37;20.23;;;14.02;;
42030;SDS011;27709;52.036;5.906;2024-03-08T13:27:06;23.90;;;16.17;;
42030;SDS011;27709;52.036;5.906;2024-03-08T13:29:44;25.00;;;17.10;;
42030;SDS011;27709;52.036;5.906;2024-03-08T13:32:11;28.38;;;18.75;;
42030;SDS011;27709;52.036;5.906;2024-03-08T13:34:40;23.08;;;17.42;;
42030;SDS011;27709;52.036;5.906;2024-03-08T13:37:06;25.88;;;18.95;;
42030;SDS011;27709;52.036;5.906;2024-03-08T13:39:34;26.13;;;17.20;;
42030;SDS011;27709;52.036;5.906;2024-03-08T13:42:09;26.40;;;18.85;;
42030;SDS011;27709;52.036;5.906;2024-03-08T13:44:45;27.10;;;19.10;;
42030;SDS011;27709;52.036;5.906;2024-03-08T13:47:11;26.75;;;18.48;;
42030;SDS011;27709;52.036;5.906;2024-03-08T13:49:38;27.92;;;19.20;;
42030;SDS011;27709;52.036;5.906;2024-03-08T13:52:07;25.83;;;18.23;;
42030;SDS011;27709;52.036;5.906;2024-03-08T13:54:44;23.80;;;16.63;;
42030;SDS011;27709;52.036;5.906;2024-03-08T13:57:09;23.95;;;15.77;;
42030;SDS011;27709;52.036;5.906;2024-03-08T13:59:35;24.40;;;18.40;;
42030;SDS011;27709;52.036;5.906;2024-03-08T14:02:01;26.58;;;17.88;;
42030;SDS011;27709;52.036;5.906;2024-03-08T14:04:28;28.13;;;18.27;;
42030;SDS011;27709;52.036;5.906;2024-03-08T14:06:54;25.75;;;18.00;;
42030;SDS011;27709;52.036;5.906;2024-03-08T14:09:28;22.58;;;14.85;;
42030;SDS011;27709;52.036;5.906;2024-03-08T14:11:54;27.63;;;17.60;;
42030;SDS011;27709;52.036;5.906;2024-03-08T14:14:23;24.52;;;17.35;;
42030;SDS011;27709;52.036;5.906;2024-03-08T14:16:50;22.05;;;15.40;;
42030;SDS011;27709;52.036;5.906;2024-03-08T14:19:22;24.65;;;16.70;;
42030;SDS011;27709;52.036;5.906;2024-03-08T14:21:49;24.42;;;16.60;;
42030;SDS011;27709;52.036;5.906;2024-03-08T14:24:16;25.17;;;18.30;;
42030;SDS011;27709;52.036;5.906;2024-03-08T14:26:42;25.50;;;17.70;;
42030;SDS011;27709;52.036;5.906;2024-03-08T14:29:11;23.30;;;17.30;;
42030;SDS011;27709;52.036;5.906;2024-03-08T14:31:38;24.90;;;16.98;;
42030;SDS011;27709;52.036;5.906;2024-03-08T14:34:06;25.23;;;18.08;;
42030;SDS011;27709;52.036;5.906;2024-03-08T14:36:32;25.50;;;18.20;;